sensor_id;sensor_type;location;lat;lon;timestamp;temperature;humidity
77519;DHT22;66629;47.346;19.038;2023-04-24T00:00:12;12.36;66.92
77519;DHT22;66629;47.346;19.038;2023-04-24T00:02:41;12.24;67.37
77519;DHT22;66629;47.346;19.038;2023-04-24T00:05:10;12.24;67.81
77519;DHT22;66629;47.346;19.038;2023-04-24T00:07:35;12.22;68.79
77519;DHT22;66629;47.346;19.038;2023-04-24T00:10:01;12.24;67.60
77519;DHT22;66629;47.346;19.038;2023-04-24T00:12:26;12.26;67.06
77519;DHT22;66629;47.346;19.038;2023-04-24T00:14:52;12.25;69.58
77519;DHT22;66629;47.346;19.038;2023-04-24T00:17:18;12.28;69.16
77519;DHT22;66629;47.346;19.038;2023-04-24T00:19:47;12.30;70.01
77519;DHT22;66629;47.346;19.038;2023-04-24T00:22:14;12.39;68.83
77519;DHT22;66629;47.346;19.038;2023-04-24T00:24:40;12.51;67.34
77519;DHT22;66629;47.346;19.038;2023-04-24T00:27:05;12.51;67.77
77519;DHT22;66629;47.346;19.038;2023-04-24T00:29:31;12.57;67.90
77519;DHT22;66629;47.346;19.038;2023-04-24T00:31:56;12.61;68.66
77519;DHT22;66629;47.346;19.038;2023-04-24T00:34:22;12.69;69.36
77519;DHT22;66629;47.346;19.038;2023-04-24T00:36:47;12.67;71.37
77519;DHT22;66629;47.346;19.038;2023-04-24T00:39:20;12.68;72.52
77519;DHT22;66629;47.346;19.038;2023-04-24T00:41:45;12.69;72.59
77519;DHT22;66629;47.346;19.038;2023-04-24T00:44:11;12.67;72.73
77519;DHT22;66629;47.346;19.038;2023-04-24T00:46:36;12.64;72.23
77519;DHT22;66629;47.346;19.038;2023-04-24T00:49:02;12.69;72.37
77519;DHT22;66629;47.346;19.038;2023-04-24T00:51:29;12.75;72.19
77519;DHT22;66629;47.346;19.038;2023-04-24T00:53:56;12.84;71.64
77519;DHT22;66629;47.346;19.038;2023-04-24T00:56:21;12.77;72.16
77519;DHT22;66629;47.346;19.038;2023-04-24T00:58:47;12.74;72.14
77519;DHT22;66629;47.346;19.038;2023-04-24T01:01:12;12.75;71.55
77519;DHT22;66629;47.346;19.038;2023-04-24T01:03:38;12.73;70.72
77519;DHT22;66629;47.346;19.038;2023-04-24T01:06:05;12.73;71.18
77519;DHT22;66629;47.346;19.038;2023-04-24T01:08:32;12.74;71.43
77519;DHT22;66629;47.346;19.038;2023-04-24T01:10:57;12.75;72.28
77519;DHT22;66629;47.346;19.038;2023-04-24T01:13:23;12.78;71.04
77519;DHT22;66629;47.346;19.038;2023-04-24T01:15:49;12.83;72.21
77519;DHT22;66629;47.346;19.038;2023-04-24T01:18:14;12.85;72.03
77519;DHT22;66629;47.346;19.038;2023-04-24T01:20:41;12.89;72.35
77519;DHT22;66629;47.346;19.038;2023-04-24T01:23:08;12.91;72.66
77519;DHT22;66629;47.346;19.038;2023-04-24T01:25:35;12.91;72.70
77519;DHT22;66629;47.346;19.038;2023-04-24T01:28:00;12.92;72.31
77519;DHT22;66629;47.346;19.038;2023-04-24T01:30:27;13.06;72.67
77519;DHT22;66629;47.346;19.038;2023-04-24T01:32:53;13.26;70.36
77519;DHT22;66629;47.346;19.038;2023-04-24T01:35:18;13.34;71.36
77519;DHT22;66629;47.346;19.038;2023-04-24T01:37:44;13.30;72.89
77519;DHT22;66629;47.346;19.038;2023-04-24T01:40:10;13.24;74.65
77519;DHT22;66629;47.346;19.038;2023-04-24T01:42:36;13.13;76.85
77519;DHT22;66629;47.346;19.038;2023-04-24T01:45:02;13.05;78.26
77519;DHT22;66629;47.346;19.038;2023-04-24T01:47:29;12.91;80.41
77519;DHT22;66629;47.346;19.038;2023-04-24T01:49:55;12.85;80.40
77519;DHT22;66629;47.346;19.038;2023-04-24T01:52:21;12.80;80.41
77519;DHT22;66629;47.346;19.038;2023-04-24T01:54:46;12.77;80.37
77519;DHT22;66629;47.346;19.038;2023-04-24T01:57:13;12.84;80.85
77519;DHT22;66629;47.346;19.038;2023-04-24T01:59:39;12.78;80.86
77519;DHT22;66629;47.346;19.038;2023-04-24T02:02:05;12.73;81.31
77519;DHT22;66629;47.346;19.038;2023-04-24T02:04:31;12.71;81.34
77519;DHT22;66629;47.346;19.038;2023-04-24T02:06:56;12.77;80.91
77519;DHT22;66629;47.346;19.038;2023-04-24T02:09:22;12.85;80.40
77519;DHT22;66629;47.346;19.038;2023-04-24T02:11:47;12.91;80.20
77519;DHT22;66629;47.346;19.038;2023-04-24T02:14:13;12.92;80.13
77519;DHT22;66629;47.346;19.038;2023-04-24T02:16:38;12.95;80.65
77519;DHT22;66629;47.346;19.038;2023-04-24T02:19:04;12.91;80.84
77519;DHT22;66629;47.346;19.038;2023-04-24T02:21:29;12.96;80.79
77519;DHT22;66629;47.346;19.038;2023-04-24T02:23:56;12.95;80.17
77519;DHT22;66629;47.346;19.038;2023-04-24T02:26:21;12.99;80.08
77519;DHT22;66629;47.346;19.038;2023-04-24T02:28:47;12.98;79.51
77519;DHT22;66629;47.346;19.038;2023-04-24T02:31:12;12.99;80.24
77519;DHT22;66629;47.346;19.038;2023-04-24T02:33:38;12.96;79.53
77519;DHT22;66629;47.346;19.038;2023-04-24T02:36:03;12.99;79.06
77519;DHT22;66629;47.346;19.038;2023-04-24T02:38:29;12.98;79.75
77519;DHT22;66629;47.346;19.038;2023-04-24T02:40:55;12.93;79.96
77519;DHT22;66629;47.346;19.038;2023-04-24T02:43:20;12.95;79.93
77519;DHT22;66629;47.346;19.038;2023-04-24T02:45:46;12.95;80.11
77519;DHT22;66629;47.346;19.038;2023-04-24T02:48:11;12.93;80.47
77519;DHT22;66629;47.346;19.038;2023-04-24T02:50:37;12.95;80.94
77519;DHT22;66629;47.346;19.038;2023-04-24T02:53:02;12.91;81.05
77519;DHT22;66629;47.346;19.038;2023-04-24T02:55:28;13.01;80.65
77519;DHT22;66629;47.346;19.038;2023-04-24T02:57:53;12.88;81.09
77519;DHT22;66629;47.346;19.038;2023-04-24T03:00:19;12.91;81.12
77519;DHT22;66629;47.346;19.038;2023-04-24T03:02:44;12.83;79.85
77519;DHT22;66629;47.346;19.038;2023-04-24T03:05:10;12.74;80.31
77519;DHT22;66629;47.346;19.038;2023-04-24T03:07:37;12.69;80.37
77519;DHT22;66629;47.346;19.038;2023-04-24T03:10:03;12.67;80.45
77519;DHT22;66629;47.346;19.038;2023-04-24T03:12:30;12.65;80.96
77519;DHT22;66629;47.346;19.038;2023-04-24T03:14:55;12.68;80.92
77519;DHT22;66629;47.346;19.038;2023-04-24T03:17:21;12.71;80.34
77519;DHT22;66629;47.346;19.038;2023-04-24T03:19:46;12.68;79.71
77519;DHT22;66629;47.346;19.038;2023-04-24T03:22:12;12.67;79.54
77519;DHT22;66629;47.346;19.038;2023-04-24T03:24:37;12.69;79.10
77519;DHT22;66629;47.346;19.038;2023-04-24T03:27:03;12.61;79.58
77519;DHT22;66629;47.346;19.038;2023-04-24T03:29:28;12.54;79.80
77519;DHT22;66629;47.346;19.038;2023-04-24T03:31:54;12.46;79.96
77519;DHT22;66629;47.346;19.038;2023-04-24T03:34:19;12.43;79.87
77519;DHT22;66629;47.346;19.038;2023-04-24T03:36:45;12.47;79.50
77519;DHT22;66629;47.346;19.038;2023-04-24T03:39:12;12.36;79.74
77519;DHT22;66629;47.346;19.038;2023-04-24T03:41:38;12.32;79.54
77519;DHT22;66629;47.346;19.038;2023-04-24T03:44:03;12.26;79.69
77519;DHT22;66629;47.346;19.038;2023-04-24T03:46:29;12.29;80.10
77519;DHT22;66629;47.346;19.038;2023-04-24T03:48:54;12.15;80.37
77519;DHT22;66629;47.346;19.038;2023-04-24T03:51:20;12.08;80.07
77519;DHT22;66629;47.346;19.038;2023-04-24T03:53:46;12.05;80.39
77519;DHT22;66629;47.346;19.038;2023-04-24T03:56:11;12.06;80.61
77519;DHT22;66629;47.346;19.038;2023-04-24T03:58:36;12.05;80.89
77519;DHT22;66629;47.346;19.038;2023-04-24T04:01:02;12.04;81.08
77519;DHT22;66629;47.346;19.038;2023-04-24T04:03:28;12.01;80.72
77519;DHT22;66629;47.346;19.038;2023-04-24T04:05:53;11.99;80.53
77519;DHT22;66629;47.346;19.038;2023-04-24T04:08:19;12.01;80.83
77519;DHT22;66629;47.346;19.038;2023-04-24T04:10:45;12.09;80.77
77519;DHT22;66629;47.346;19.038;2023-04-24T04:13:10;12.08;80.43
77519;DHT22;66629;47.346;19.038;2023-04-24T04:15:35;12.11;80.48
77519;DHT22;66629;47.346;19.038;2023-04-24T04:18:01;12.09;80.37
77519;DHT22;66629;47.346;19.038;2023-04-24T04:20:27;12.12;80.83
77519;DHT22;66629;47.346;19.038;2023-04-24T04:22:52;12.18;80.64
77519;DHT22;66629;47.346;19.038;2023-04-24T04:25:17;12.16;81.16
77519;DHT22;66629;47.346;19.038;2023-04-24T04:27:45;12.22;82.04
77519;DHT22;66629;47.346;19.038;2023-04-24T04:30:13;12.12;81.72
77519;DHT22;66629;47.346;19.038;2023-04-24T04:32:39;12.14;82.29
77519;DHT22;66629;47.346;19.038;2023-04-24T04:35:04;12.06;82.54
77519;DHT22;66629;47.346;19.038;2023-04-24T04:37:31;12.01;82.83
77519;DHT22;66629;47.346;19.038;2023-04-24T04:39:57;12.02;83.62
77519;DHT22;66629;47.346;19.038;2023-04-24T04:42:24;11.97;83.97
77519;DHT22;66629;47.346;19.038;2023-04-24T04:44:49;11.98;83.74
77519;DHT22;66629;47.346;19.038;2023-04-24T04:47:16;11.94;83.99
77519;DHT22;66629;47.346;19.038;2023-04-24T04:49:43;11.92;84.56
77519;DHT22;66629;47.346;19.038;2023-04-24T04:52:09;11.95;84.05
77519;DHT22;66629;47.346;19.038;2023-04-24T04:54:34;11.99;84.44
77519;DHT22;66629;47.346;19.038;2023-04-24T04:57:00;12.01;84.61
77519;DHT22;66629;47.346;19.038;2023-04-24T04:59:26;12.05;84.06
77519;DHT22;66629;47.346;19.038;2023-04-24T05:01:52;12.11;84.10
77519;DHT22;66629;47.346;19.038;2023-04-24T05:04:17;12.12;84.27
77519;DHT22;66629;47.346;19.038;2023-04-24T05:06:43;12.15;84.42
77519;DHT22;66629;47.346;19.038;2023-04-24T05:09:08;12.12;84.48
77519;DHT22;66629;47.346;19.038;2023-04-24T05:11:34;12.18;84.45
77519;DHT22;66629;47.346;19.038;2023-04-24T05:14:00;12.25;84.20
77519;DHT22;66629;47.346;19.038;2023-04-24T05:16:26;12.19;83.98
77519;DHT22;66629;47.346;19.038;2023-04-24T05:18:51;12.24;83.99
77519;DHT22;66629;47.346;19.038;2023-04-24T05:21:17;12.28;84.07
77519;DHT22;66629;47.346;19.038;2023-04-24T05:23:42;12.24;83.83
77519;DHT22;66629;47.346;19.038;2023-04-24T05:26:08;12.32;83.79
77519;DHT22;66629;47.346;19.038;2023-04-24T05:28:33;12.30;83.56
77519;DHT22;66629;47.346;19.038;2023-04-24T05:30:59;12.36;83.76
77519;DHT22;66629;47.346;19.038;2023-04-24T05:33:24;12.51;83.80
77519;DHT22;66629;47.346;19.038;2023-04-24T05:35:50;12.51;83.32
77519;DHT22;66629;47.346;19.038;2023-04-24T05:38:15;12.56;83.14
77519;DHT22;66629;47.346;19.038;2023-04-24T05:40:45;12.65;82.56
77519;DHT22;66629;47.346;19.038;2023-04-24T05:43:11;12.68;82.77
77519;DHT22;66629;47.346;19.038;2023-04-24T05:45:37;12.77;82.38
77519;DHT22;66629;47.346;19.038;2023-04-24T05:48:03;12.77;82.27
77519;DHT22;66629;47.346;19.038;2023-04-24T05:50:28;12.74;82.46
77519;DHT22;66629;47.346;19.038;2023-04-24T05:52:54;12.71;82.55
77519;DHT22;66629;47.346;19.038;2023-04-24T05:55:20;12.78;82.96
77519;DHT22;66629;47.346;19.038;2023-04-24T05:57:45;12.84;83.21
77519;DHT22;66629;47.346;19.038;2023-04-24T06:00:11;12.93;82.59
77519;DHT22;66629;47.346;19.038;2023-04-24T06:02:40;13.01;83.80
77519;DHT22;66629;47.346;19.038;2023-04-24T06:05:05;13.12;82.63
77519;DHT22;66629;47.346;19.038;2023-04-24T06:07:31;13.12;82.83
77519;DHT22;66629;47.346;19.038;2023-04-24T06:09:57;13.05;82.99
77519;DHT22;66629;47.346;19.038;2023-04-24T06:12:22;13.12;82.73
77519;DHT22;66629;47.346;19.038;2023-04-24T06:14:48;13.09;82.96
77519;DHT22;66629;47.346;19.038;2023-04-24T06:17:14;13.01;83.25
77519;DHT22;66629;47.346;19.038;2023-04-24T06:19:39;13.08;84.00
77519;DHT22;66629;47.346;19.038;2023-04-24T06:22:05;13.19;83.00
77519;DHT22;66629;47.346;19.038;2023-04-24T06:24:31;13.23;83.02
77519;DHT22;66629;47.346;19.038;2023-04-24T06:26:56;13.22;83.27
77519;DHT22;66629;47.346;19.038;2023-04-24T06:29:23;13.18;84.04
77519;DHT22;66629;47.346;19.038;2023-04-24T06:31:49;13.19;83.62
77519;DHT22;66629;47.346;19.038;2023-04-24T06:34:14;13.20;83.32
77519;DHT22;66629;47.346;19.038;2023-04-24T06:36:40;13.23;83.54
77519;DHT22;66629;47.346;19.038;2023-04-24T06:39:05;13.20;85.36
77519;DHT22;66629;47.346;19.038;2023-04-24T06:41:31;13.20;86.30
77519;DHT22;66629;47.346;19.038;2023-04-24T06:43:57;13.20;84.09
77519;DHT22;66629;47.346;19.038;2023-04-24T06:46:22;13.24;84.01
77519;DHT22;66629;47.346;19.038;2023-04-24T06:48:51;13.32;83.42
77519;DHT22;66629;47.346;19.038;2023-04-24T06:51:16;13.42;84.00
77519;DHT22;66629;47.346;19.038;2023-04-24T06:53:43;13.40;84.22
77519;DHT22;66629;47.346;19.038;2023-04-24T06:56:08;13.50;85.00
77519;DHT22;66629;47.346;19.038;2023-04-24T06:58:34;13.57;85.10
77519;DHT22;66629;47.346;19.038;2023-04-24T07:01:00;13.55;84.97
77519;DHT22;66629;47.346;19.038;2023-04-24T07:03:25;13.48;84.46
77519;DHT22;66629;47.346;19.038;2023-04-24T07:05:51;13.48;84.89
77519;DHT22;66629;47.346;19.038;2023-04-24T07:08:16;13.54;84.42
77519;DHT22;66629;47.346;19.038;2023-04-24T07:10:43;13.53;84.61
77519;DHT22;66629;47.346;19.038;2023-04-24T07:13:09;13.43;84.19
77519;DHT22;66629;47.346;19.038;2023-04-24T07:15:34;13.37;83.88
77519;DHT22;66629;47.346;19.038;2023-04-24T07:18:00;13.42;84.79
77519;DHT22;66629;47.346;19.038;2023-04-24T07:20:26;13.58;85.84
77519;DHT22;66629;47.346;19.038;2023-04-24T07:22:51;13.64;85.00
77519;DHT22;66629;47.346;19.038;2023-04-24T07:25:19;13.81;85.05
77519;DHT22;66629;47.346;19.038;2023-04-24T07:27:44;13.82;85.16
77519;DHT22;66629;47.346;19.038;2023-04-24T07:30:10;13.95;85.56
77519;DHT22;66629;47.346;19.038;2023-04-24T07:32:36;13.85;85.18
77519;DHT22;66629;47.346;19.038;2023-04-24T07:35:01;13.89;85.09
77519;DHT22;66629;47.346;19.038;2023-04-24T07:37:28;13.75;84.97
77519;DHT22;66629;47.346;19.038;2023-04-24T07:39:54;13.79;84.53
77519;DHT22;66629;47.346;19.038;2023-04-24T07:42:19;13.82;84.36
77519;DHT22;66629;47.346;19.038;2023-04-24T07:44:44;13.92;84.34
77519;DHT22;66629;47.346;19.038;2023-04-24T07:47:11;14.02;84.59
77519;DHT22;66629;47.346;19.038;2023-04-24T07:49:37;14.30;84.25
77519;DHT22;66629;47.346;19.038;2023-04-24T07:52:02;14.48;83.18
77519;DHT22;66629;47.346;19.038;2023-04-24T07:54:28;14.64;81.04
77519;DHT22;66629;47.346;19.038;2023-04-24T07:56:54;15.20;80.76
77519;DHT22;66629;47.346;19.038;2023-04-24T07:59:19;15.37;79.69
77519;DHT22;66629;47.346;19.038;2023-04-24T08:01:45;15.20;79.72
77519;DHT22;66629;47.346;19.038;2023-04-24T08:04:10;15.27;79.04
77519;DHT22;66629;47.346;19.038;2023-04-24T08:06:36;15.21;79.35
77519;DHT22;66629;47.346;19.038;2023-04-24T08:09:01;15.21;78.39
77519;DHT22;66629;47.346;19.038;2023-04-24T08:11:27;15.24;77.96
77519;DHT22;66629;47.346;19.038;2023-04-24T08:13:52;15.32;77.58
77519;DHT22;66629;47.346;19.038;2023-04-24T08:16:19;15.31;77.16
77519;DHT22;66629;47.346;19.038;2023-04-24T08:18:45;15.52;76.88
77519;DHT22;66629;47.346;19.038;2023-04-24T08:21:10;15.59;77.35
77519;DHT22;66629;47.346;19.038;2023-04-24T08:23:38;15.79;77.57
77519;DHT22;66629;47.346;19.038;2023-04-24T08:26:03;15.89;75.70
77519;DHT22;66629;47.346;19.038;2023-04-24T08:28:29;15.85;75.16
77519;DHT22;66629;47.346;19.038;2023-04-24T08:30:54;15.90;74.63
77519;DHT22;66629;47.346;19.038;2023-04-24T08:33:23;15.85;74.52
77519;DHT22;66629;47.346;19.038;2023-04-24T08:35:48;15.90;74.53
77519;DHT22;66629;47.346;19.038;2023-04-24T08:38:15;16.12;75.54
77519;DHT22;66629;47.346;19.038;2023-04-24T08:40:41;16.24;72.75
77519;DHT22;66629;47.346;19.038;2023-04-24T08:43:06;16.57;72.92
77519;DHT22;66629;47.346;19.038;2023-04-24T08:45:32;16.51;72.11
77519;DHT22;66629;47.346;19.038;2023-04-24T08:47:58;16.63;72.41
77519;DHT22;66629;47.346;19.038;2023-04-24T08:50:25;16.77;72.81
77519;DHT22;66629;47.346;19.038;2023-04-24T08:52:51;16.94;72.96
77519;DHT22;66629;47.346;19.038;2023-04-24T08:55:19;17.01;71.61
77519;DHT22;66629;47.346;19.038;2023-04-24T08:57:48;17.19;72.26
77519;DHT22;66629;47.346;19.038;2023-04-24T09:00:15;17.29;70.12
77519;DHT22;66629;47.346;19.038;2023-04-24T09:02:42;17.42;70.81
77519;DHT22;66629;47.346;19.038;2023-04-24T09:05:08;17.49;71.29
77519;DHT22;66629;47.346;19.038;2023-04-24T09:07:35;17.95;69.81
77519;DHT22;66629;47.346;19.038;2023-04-24T09:10:03;18.12;68.82
77519;DHT22;66629;47.346;19.038;2023-04-24T09:12:28;18.19;67.73
77519;DHT22;66629;47.346;19.038;2023-04-24T09:14:54;18.40;67.39
77519;DHT22;66629;47.346;19.038;2023-04-24T09:17:20;18.34;66.71
77519;DHT22;66629;47.346;19.038;2023-04-24T09:19:48;18.50;66.47
77519;DHT22;66629;47.346;19.038;2023-04-24T09:22:14;18.69;64.83
77519;DHT22;66629;47.346;19.038;2023-04-24T09:24:40;19.02;63.96
77519;DHT22;66629;47.346;19.038;2023-04-24T09:27:06;19.48;63.66
77519;DHT22;66629;47.346;19.038;2023-04-24T09:29:32;19.35;62.94
77519;DHT22;66629;47.346;19.038;2023-04-24T09:31:58;18.75;63.28
77519;DHT22;66629;47.346;19.038;2023-04-24T09:34:26;18.36;66.10
77519;DHT22;66629;47.346;19.038;2023-04-24T09:36:52;18.48;66.38
77519;DHT22;66629;47.346;19.038;2023-04-24T09:39:18;18.48;65.53
77519;DHT22;66629;47.346;19.038;2023-04-24T09:41:52;18.33;66.23
77519;DHT22;66629;47.346;19.038;2023-04-24T09:44:19;18.46;66.17
77519;DHT22;66629;47.346;19.038;2023-04-24T09:46:53;18.44;66.59
77519;DHT22;66629;47.346;19.038;2023-04-24T09:49:30;18.75;65.44
77519;DHT22;66629;47.346;19.038;2023-04-24T09:52:07;18.68;65.49
77519;DHT22;66629;47.346;19.038;2023-04-24T09:54:33;19.10;64.99
77519;DHT22;66629;47.346;19.038;2023-04-24T09:56:59;19.20;63.19
77519;DHT22;66629;47.346;19.038;2023-04-24T09:59:25;19.12;64.01
77519;DHT22;66629;47.346;19.038;2023-04-24T10:01:51;19.05;63.58
77519;DHT22;66629;47.346;19.038;2023-04-24T10:04:21;19.19;63.06
77519;DHT22;66629;47.346;19.038;2023-04-24T10:06:48;18.88;63.98
77519;DHT22;66629;47.346;19.038;2023-04-24T10:09:15;19.00;63.84
77519;DHT22;66629;47.346;19.038;2023-04-24T10:11:45;18.79;63.38
77519;DHT22;66629;47.346;19.038;2023-04-24T10:14:13;19.02;64.64
77519;DHT22;66629;47.346;19.038;2023-04-24T10:16:39;19.02;63.57
77519;DHT22;66629;47.346;19.038;2023-04-24T10:19:06;18.79;65.34
77519;DHT22;66629;47.346;19.038;2023-04-24T10:21:32;18.94;64.44
77519;DHT22;66629;47.346;19.038;2023-04-24T10:23:58;18.95;65.22
77519;DHT22;66629;47.346;19.038;2023-04-24T10:26:26;19.07;65.32
77519;DHT22;66629;47.346;19.038;2023-04-24T10:28:53;18.88;65.36
77519;DHT22;66629;47.346;19.038;2023-04-24T10:31:20;18.96;66.29
77519;DHT22;66629;47.346;19.038;2023-04-24T10:33:46;19.15;64.55
77519;DHT22;66629;47.346;19.038;2023-04-24T10:36:13;19.27;63.05
77519;DHT22;66629;47.346;19.038;2023-04-24T10:38:42;19.40;62.12
77519;DHT22;66629;47.346;19.038;2023-04-24T10:41:12;19.69;62.66
77519;DHT22;66629;47.346;19.038;2023-04-24T10:43:45;19.89;61.83
77519;DHT22;66629;47.346;19.038;2023-04-24T10:46:16;19.57;60.60
77519;DHT22;66629;47.346;19.038;2023-04-24T10:48:52;19.40;61.36
77519;DHT22;66629;47.346;19.038;2023-04-24T10:51:22;19.40;61.18
77519;DHT22;66629;47.346;19.038;2023-04-24T10:53:49;19.48;61.37
77519;DHT22;66629;47.346;19.038;2023-04-24T10:56:16;19.54;60.48
77519;DHT22;66629;47.346;19.038;2023-04-24T11:01:31;19.99;60.23
77519;DHT22;66629;47.346;19.038;2023-04-24T11:03:59;19.75;60.52
77519;DHT22;66629;47.346;19.038;2023-04-24T11:06:32;19.61;61.16
77519;DHT22;66629;47.346;19.038;2023-04-24T11:09:08;19.83;60.69
77519;DHT22;66629;47.346;19.038;2023-04-24T11:11:36;20.17;60.88
77519;DHT22;66629;47.346;19.038;2023-04-24T11:14:04;20.65;59.12
77519;DHT22;66629;47.346;19.038;2023-04-24T11:16:42;20.89;58.83
77519;DHT22;66629;47.346;19.038;2023-04-24T11:19:11;20.38;58.84
77519;DHT22;66629;47.346;19.038;2023-04-24T11:21:48;20.84;58.00
77519;DHT22;66629;47.346;19.038;2023-04-24T11:32:18;19.74;61.35
77519;DHT22;66629;47.346;19.038;2023-04-24T11:34:52;19.69;61.32
77519;DHT22;66629;47.346;19.038;2023-04-24T11:37:18;19.72;62.22
77519;DHT22;66629;47.346;19.038;2023-04-24T11:39:43;19.28;64.80
77519;DHT22;66629;47.346;19.038;2023-04-24T11:42:09;18.81;71.16
77519;DHT22;66629;47.346;19.038;2023-04-24T11:44:35;18.63;73.54
77519;DHT22;66629;47.346;19.038;2023-04-24T11:47:04;18.40;74.72
77519;DHT22;66629;47.346;19.038;2023-04-24T11:49:29;18.39;75.04
77519;DHT22;66629;47.346;19.038;2023-04-24T11:51:55;18.60;74.01
77519;DHT22;66629;47.346;19.038;2023-04-24T11:54:21;18.92;73.26
77519;DHT22;66629;47.346;19.038;2023-04-24T11:56:47;19.07;73.14
77519;DHT22;66629;47.346;19.038;2023-04-24T11:59:13;19.10;72.02
77519;DHT22;66629;47.346;19.038;2023-04-24T12:01:45;19.30;71.87
77519;DHT22;66629;47.346;19.038;2023-04-24T12:04:12;19.35;71.64
77519;DHT22;66629;47.346;19.038;2023-04-24T12:06:38;19.23;69.49
77519;DHT22;66629;47.346;19.038;2023-04-24T12:09:03;19.05;69.19
77519;DHT22;66629;47.346;19.038;2023-04-24T12:11:29;19.09;68.60
77519;DHT22;66629;47.346;19.038;2023-04-24T12:13:55;19.20;68.01
77519;DHT22;66629;47.346;19.038;2023-04-24T12:16:20;19.53;66.85
77519;DHT22;66629;47.346;19.038;2023-04-24T12:18:46;20.07;67.79
77519;DHT22;66629;47.346;19.038;2023-04-24T12:21:22;19.96;62.21
77519;DHT22;66629;47.346;19.038;2023-04-24T12:23:48;20.07;63.97
77519;DHT22;66629;47.346;19.038;2023-04-24T12:26:18;19.69;63.38
77519;DHT22;66629;47.346;19.038;2023-04-24T12:28:46;19.83;64.69
77519;DHT22;66629;47.346;19.038;2023-04-24T12:31:12;19.66;65.21
77519;DHT22;66629;47.346;19.038;2023-04-24T12:33:37;19.46;64.95
77519;DHT22;66629;47.346;19.038;2023-04-24T12:36:03;19.28;66.05
77519;DHT22;66629;47.346;19.038;2023-04-24T12:38:30;19.33;65.40
77519;DHT22;66629;47.346;19.038;2023-04-24T12:41:07;19.24;66.56
77519;DHT22;66629;47.346;19.038;2023-04-24T12:43:33;19.09;67.16
77519;DHT22;66629;47.346;19.038;2023-04-24T12:45:59;18.94;67.79
77519;DHT22;66629;47.346;19.038;2023-04-24T12:48:27;18.92;68.63
77519;DHT22;66629;47.346;19.038;2023-04-24T12:50:53;19.10;68.41
77519;DHT22;66629;47.346;19.038;2023-04-24T12:53:19;19.12;67.29
77519;DHT22;66629;47.346;19.038;2023-04-24T12:55:44;19.15;68.73
77519;DHT22;66629;47.346;19.038;2023-04-24T12:58:12;19.26;69.02
77519;DHT22;66629;47.346;19.038;2023-04-24T13:00:38;19.23;67.56
77519;DHT22;66629;47.346;19.038;2023-04-24T13:03:04;19.38;66.16
77519;DHT22;66629;47.346;19.038;2023-04-24T13:05:29;19.23;66.00
77519;DHT22;66629;47.346;19.038;2023-04-24T13:07:55;19.47;66.59
77519;DHT22;66629;47.346;19.038;2023-04-24T13:10:20;19.61;65.91
77519;DHT22;66629;47.346;19.038;2023-04-24T13:12:46;19.37;65.68
77519;DHT22;66629;47.346;19.038;2023-04-24T13:15:11;19.10;65.75
77519;DHT22;66629;47.346;19.038;2023-04-24T13:17:37;18.82;67.37
77519;DHT22;66629;47.346;19.038;2023-04-24T13:20:03;18.75;67.94
77519;DHT22;66629;47.346;19.038;2023-04-24T13:22:28;18.51;69.62
77519;DHT22;66629;47.346;19.038;2023-04-24T13:24:54;18.22;70.14
77519;DHT22;66629;47.346;19.038;2023-04-24T13:27:20;17.92;71.40
77519;DHT22;66629;47.346;19.038;2023-04-24T13:29:45;17.64;71.63
77519;DHT22;66629;47.346;19.038;2023-04-24T13:32:11;17.67;72.28
77519;DHT22;66629;47.346;19.038;2023-04-24T13:34:36;17.66;72.27
77519;DHT22;66629;47.346;19.038;2023-04-24T13:37:02;17.71;72.64
77519;DHT22;66629;47.346;19.038;2023-04-24T13:39:31;17.56;73.08
77519;DHT22;66629;47.346;19.038;2023-04-24T13:41:57;17.28;74.28
77519;DHT22;66629;47.346;19.038;2023-04-24T13:44:23;17.33;73.97
77519;DHT22;66629;47.346;19.038;2023-04-24T13:46:50;17.10;74.79
77519;DHT22;66629;47.346;19.038;2023-04-24T13:49:17;17.28;74.67
77519;DHT22;66629;47.346;19.038;2023-04-24T13:51:43;17.19;74.23
77519;DHT22;66629;47.346;19.038;2023-04-24T13:54:09;17.10;73.30
77519;DHT22;66629;47.346;19.038;2023-04-24T13:56:35;16.84;74.33
77519;DHT22;66629;47.346;19.038;2023-04-24T13:59:00;16.77;75.13
77519;DHT22;66629;47.346;19.038;2023-04-24T14:01:26;16.59;74.61
77519;DHT22;66629;47.346;19.038;2023-04-24T14:03:52;16.56;75.33
77519;DHT22;66629;47.346;19.038;2023-04-24T14:06:18;16.55;76.21
77519;DHT22;66629;47.346;19.038;2023-04-24T14:08:44;16.42;76.10
77519;DHT22;66629;47.346;19.038;2023-04-24T14:11:09;16.24;77.65
77519;DHT22;66629;47.346;19.038;2023-04-24T14:13:36;16.03;80.46
77519;DHT22;66629;47.346;19.038;2023-04-24T14:16:03;16.08;80.91
77519;DHT22;66629;47.346;19.038;2023-04-24T14:18:28;15.94;80.45
77519;DHT22;66629;47.346;19.038;2023-04-24T14:20:54;15.94;81.49
77519;DHT22;66629;47.346;19.038;2023-04-24T14:23:19;16.01;81.92
77519;DHT22;66629;47.346;19.038;2023-04-24T14:25:45;16.11;81.50
77519;DHT22;66629;47.346;19.038;2023-04-24T14:28:11;16.10;81.15
77519;DHT22;66629;47.346;19.038;2023-04-24T14:30:36;16.08;81.81
77519;DHT22;66629;47.346;19.038;2023-04-24T14:33:03;16.12;81.95
77519;DHT22;66629;47.346;19.038;2023-04-24T14:35:29;16.21;82.80
77519;DHT22;66629;47.346;19.038;2023-04-24T14:37:56;16.20;82.56
77519;DHT22;66629;47.346;19.038;2023-04-24T14:40:22;16.31;82.55
77519;DHT22;66629;47.346;19.038;2023-04-24T14:42:47;16.32;80.88
77519;DHT22;66629;47.346;19.038;2023-04-24T14:45:13;16.24;81.60
77519;DHT22;66629;47.346;19.038;2023-04-24T14:47:38;16.20;80.90
77519;DHT22;66629;47.346;19.038;2023-04-24T14:50:04;16.14;83.25
77519;DHT22;66629;47.346;19.038;2023-04-24T14:52:30;16.07;84.54
77519;DHT22;66629;47.346;19.038;2023-04-24T14:54:55;16.03;86.46
77519;DHT22;66629;47.346;19.038;2023-04-24T14:57:22;16.01;86.59
77519;DHT22;66629;47.346;19.038;2023-04-24T14:59:47;16.03;86.80
77519;DHT22;66629;47.346;19.038;2023-04-24T15:02:12;15.87;86.70
77519;DHT22;66629;47.346;19.038;2023-04-24T15:04:38;15.58;84.49
77519;DHT22;66629;47.346;19.038;2023-04-24T15:07:03;15.63;85.56
77519;DHT22;66629;47.346;19.038;2023-04-24T15:09:29;15.76;85.31
77519;DHT22;66629;47.346;19.038;2023-04-24T15:11:57;15.65;87.16
77519;DHT22;66629;47.346;19.038;2023-04-24T15:14:22;15.66;86.34
77519;DHT22;66629;47.346;19.038;2023-04-24T15:16:48;15.79;87.88
77519;DHT22;66629;47.346;19.038;2023-04-24T15:19:13;15.89;85.07